Accueil
METAR-TAF:

METAR-TAF

Aéroports :

Paganella, Italie

latitude: 46-09N, longitude: 011-02E, altitude: 2125 m

Observation

Le bulletin a été fait il y a 1 heure et 7 minutes, à 08:55 UTC
Vent 2 kt de sud
Température 4°C
Humidité 87%
Pression 1020 hPa
Visibilité: 0300 m
brouillard

METAR: LIVP 300855Z 19002KT 0300 FG VV/// 04/02 Q1020 RMK MON INVIS VAL INVIS VIS MIN 0300

Heure: 12:02 (10:02 UTC)


TAF: absent

Observations et prévisions météorologiques de plus de 4000 aéroports (messages METAR et TAF).

Les stations disponibles sont représentées par des disques jaunes et rouges sur la carte.

Passer la souris dessus pour voir le nom de la station.

Cliquer dessus pour voir les observations et prévisions météorologiques.

Pour changer de carte: cliquez sur les boutons verts avec une croix noire pour zoomer, sur le bouton vert avec un tiret pour effectuer un zoom arrière, ou sur les flèches vertes pour les cartes adjacentes.


METAR-TAF: